Time;durP1;ratioP1;P1;durP2;ratioP2;P2;SDS_P1;SDS_P2;PMS_P1;PMS_P2;Temp;Humidity;BMP_temperature;BMP_pressure;BME280_temperature;BME280_humidity;BME280_pressure;Samples;Min_cycle;Max_cycle;Signal;HPM_P1;HPM_P2
2022/01/01 00:01:31;;;;;;;65.97;25.85;;;11.10;99.90;;;;;;5055132;28;20129;-75
2022/01/01 00:03:57;;;;;;;63.25;23.95;;;11.10;99.90;;;;;;5055061;28;20516;-75
2022/01/01 00:06:23;;;;;;;66.75;26.00;;;11.10;99.90;;;;;;5055137;28;20041;-75
2022/01/01 00:08:48;;;;;;;62.63;26.42;;;11.10;99.90;;;;;;5055155;28;20043;-75
2022/01/01 00:11:14;;;;;;;57.58;24.58;;;11.10;99.90;;;;;;5055034;28;20125;-75
2022/01/01 00:13:40;;;;;;;63.38;25.98;;;11.20;99.90;;;;;;5054942;28;20090;-75
2022/01/01 00:16:09;;;;;;;56.40;26.20;;;11.20;99.90;;;;;;5038630;28;20068;-75
2022/01/01 00:18:39;;;;;;;58.75;26.42;;;11.20;99.90;;;;;;5054934;28;20054;-75
2022/01/01 00:21:06;;;;;;;69.25;27.13;;;11.20;99.90;;;;;;5055011;28;20086;-74
2022/01/01 00:23:32;;;;;;;64.95;30.05;;;11.20;99.90;;;;;;5054731;28;20044;-75
2022/01/01 00:25:59;;;;;;;68.25;29.90;;;11.20;99.90;;;;;;5055342;28;20059;-75
2022/01/01 00:28:25;;;;;;;70.72;31.55;;;11.10;99.90;;;;;;5054755;28;20044;-75
2022/01/01 00:30:50;;;;;;;70.50;30.75;;;11.20;99.90;;;;;;5054844;28;20036;-75
2022/01/01 00:33:16;;;;;;;65.35;31.00;;;11.10;99.90;;;;;;5054670;28;20086;-75
2022/01/01 00:35:42;;;;;;;70.75;32.20;;;11.10;99.90;;;;;;5055043;28;20050;-75
2022/01/01 00:38:08;;;;;;;67.20;32.08;;;11.10;99.90;;;;;;5055036;28;20083;-74
2022/01/01 00:40:34;;;;;;;65.93;30.02;;;11.10;99.90;;;;;;5055019;28;20040;-74
2022/01/01 00:43:03;;;;;;;70.20;30.40;;;11.10;99.90;;;;;;5054630;28;20047;-74
2022/01/01 00:45:28;;;;;;;62.47;29.63;;;11.10;99.90;;;;;;5054683;28;20033;-74
2022/01/01 00:47:54;;;;;;;72.40;31.10;;;11.10;99.90;;;;;;5054545;28;20093;-74
2022/01/01 00:50:19;;;;;;;66.13;30.00;;;11.00;99.90;;;;;;5054756;28;20063;-74
2022/01/01 00:52:45;;;;;;;64.88;28.67;;;11.00;99.90;;;;;;5054581;28;20032;-74
2022/01/01 00:55:11;;;;;;;67.72;26.75;;;11.00;99.90;;;;;;5038157;28;20071;-74
2022/01/01 00:57:37;;;;;;;66.30;24.58;;;11.00;99.90;;;;;;5054633;28;20574;-74
2022/01/01 01:00:04;;;;;;;55.72;23.30;;;11.00;99.90;;;;;;5056617;28;20080;-73
2022/01/01 01:02:31;;;;;;;56.85;21.02;;;11.00;99.90;;;;;;5058832;28;20040;-73
2022/01/01 01:04:57;;;;;;;55.45;21.73;;;11.00;99.90;;;;;;5041776;28;20607;-74
2022/01/01 01:07:23;;;;;;;59.88;22.83;;;11.00;99.90;;;;;;5058418;28;20088;-74
2022/01/01 01:09:48;;;;;;;61.33;21.52;;;11.00;99.90;;;;;;5058185;28;20044;-74
2022/01/01 01:12:20;;;;;;;55.38;20.10;;;11.00;99.90;;;;;;5058626;28;20189;-74
2022/01/01 01:14:46;;;;;;;61.80;19.42;;;11.00;99.90;;;;;;5058173;28;20493;-74
2022/01/01 01:17:12;;;;;;;55.72;19.38;;;11.00;99.90;;;;;;5058318;28;20127;-74
2022/01/01 01:19:37;;;;;;;58.70;19.48;;;11.00;99.90;;;;;;5058338;28;20071;-73
2022/01/01 01:22:03;;;;;;;53.60;18.85;;;11.00;99.90;;;;;;5058100;28;20040;-73
2022/01/01 01:24:29;;;;;;;57.92;18.17;;;11.00;99.90;;;;;;5057993;28;20438;-73
2022/01/01 01:26:59;;;;;;;54.80;18.75;;;11.00;99.90;;;;;;5057952;28;20044;-73
2022/01/01 01:29:25;;;;;;;63.90;19.30;;;11.00;99.90;;;;;;5057902;28;20536;-73
2022/01/01 01:31:51;;;;;;;56.60;20.00;;;11.00;99.90;;;;;;5058055;28;20128;-73
2022/01/01 01:34:16;;;;;;;62.83;21.45;;;11.00;99.90;;;;;;5057997;28;20489;-73
2022/01/01 01:36:42;;;;;;;61.08;23.08;;;11.00;99.90;;;;;;5057753;28;20492;-74
2022/01/01 01:39:08;;;;;;;58.50;24.30;;;11.00;99.90;;;;;;5057959;28;20044;-74
2022/01/01 01:41:33;;;;;;;60.85;25.27;;;10.90;99.90;;;;;;5057672;28;20078;-73
2022/01/01 01:43:59;;;;;;;71.25;27.25;;;10.90;99.90;;;;;;5057531;28;20040;-72
2022/01/01 01:46:26;;;;;;;65.55;29.05;;;10.90;99.90;;;;;;5057556;28;20132;-73
2022/01/01 01:48:52;;;;;;;71.05;30.88;;;10.90;99.90;;;;;;5057431;28;20128;-73
2022/01/01 01:51:18;;;;;;;66.40;32.95;;;10.90;99.90;;;;;;5057683;28;20051;-73
2022/01/01 01:53:44;;;;;;;81.28;35.30;;;10.90;99.90;;;;;;5057307;28;20033;-74
2022/01/01 01:56:10;;;;;;;83.50;38.22;;;10.80;99.90;;;;;;5057309;28;20036;-75
2022/01/01 01:58:36;;;;;;;85.72;42.08;;;10.80;99.90;;;;;;5057888;28;20133;-75
2022/01/01 02:03:27;;;;;;;92.75;46.63;;;10.70;99.90;;;;;;5057575;28;20048;-75
2022/01/01 02:05:53;;;;;;;85.55;46.30;;;10.70;99.90;;;;;;5057412;28;20048;-75
2022/01/01 02:08:19;;;;;;;88.80;47.42;;;10.70;99.90;;;;;;5057618;28;20052;-75
2022/01/01 02:10:48;;;;;;;94.57;48.28;;;10.70;99.90;;;;;;5040228;28;20055;-75
2022/01/01 02:13:22;;;;;;;90.07;46.03;;;10.70;99.90;;;;;;5056965;28;20043;-75
2022/01/01 02:18:16;;;;;;;83.30;43.17;;;10.60;99.90;;;;;;5057030;28;20044;-75
2022/01/01 02:20:49;;;;;;;91.38;45.25;;;10.60;99.90;;;;;;5057058;28;20131;-75
2022/01/01 02:23:14;;;;;;;82.45;43.63;;;10.60;99.90;;;;;;5056812;28;20044;-75
2022/01/01 02:25:41;;;;;;;82.97;44.75;;;10.60;99.90;;;;;;5056849;28;20047;-75
2022/01/01 02:28:09;;;;;;;81.60;42.63;;;10.60;99.90;;;;;;5056975;28;20055;-74
2022/01/01 02:30:35;;;;;;;85.78;42.67;;;10.60;99.90;;;;;;5056884;28;20044;-74
2022/01/01 02:33:00;;;;;;;93.95;44.38;;;10.60;99.90;;;;;;5040273;28;20024;-74
2022/01/01 02:35:26;;;;;;;87.07;44.30;;;10.70;99.90;;;;;;5056651;28;20579;-74
2022/01/01 02:37:52;;;;;;;78.35;43.42;;;10.60;99.90;;;;;;5056546;28;20051;-74
2022/01/01 02:40:17;;;;;;;82.15;43.92;;;10.70;99.90;;;;;;5039896;28;20040;-74
2022/01/01 02:42:43;;;;;;;85.70;42.20;;;10.70;99.90;;;;;;5056479;28;20033;-74
2022/01/01 02:45:11;;;;;;;86.13;42.67;;;10.80;99.90;;;;;;5056476;28;20059;-74
2022/01/01 02:47:37;;;;;;;89.28;41.88;;;10.80;99.90;;;;;;5039755;28;20037;-74
2022/01/01 02:50:04;;;;;;;82.25;42.80;;;10.80;99.90;;;;;;5056251;28;20097;-74
2022/01/01 02:52:29;;;;;;;77.93;41.22;;;10.90;99.90;;;;;;5039572;28;20036;-74
2022/01/01 02:54:55;;;;;;;83.57;42.72;;;10.90;99.90;;;;;;5056352;28;20032;-74
2022/01/01 02:57:20;;;;;;;87.88;44.33;;;10.90;99.90;;;;;;5056284;28;20032;-74
2022/01/01 02:59:46;;;;;;;86.18;41.42;;;10.90;99.90;;;;;;5039595;28;20040;-74
2022/01/01 03:02:12;;;;;;;92.47;43.45;;;10.90;99.90;;;;;;5056275;28;20049;-74
2022/01/01 03:04:37;;;;;;;83.43;43.55;;;10.90;99.90;;;;;;5039800;28;20051;-74
2022/01/01 03:07:03;;;;;;;93.88;45.13;;;10.90;99.90;;;;;;5056113;28;20436;-74
2022/01/01 03:09:34;;;;;;;93.97;43.83;;;10.90;99.90;;;;;;5055936;28;20082;-74
2022/01/01 03:12:04;;;;;;;83.05;45.00;;;10.90;99.90;;;;;;5056229;28;20036;-74
2022/01/01 03:14:30;;;;;;;92.13;45.78;;;10.90;99.90;;;;;;5039309;28;20046;-74
2022/01/01 03:16:56;;;;;;;88.82;45.78;;;10.90;99.90;;;;;;5055866;28;20075;-74
2022/01/01 03:19:22;;;;;;;80.30;44.55;;;10.90;99.90;;;;;;5055745;28;20076;-74
2022/01/01 03:21:48;;;;;;;94.18;46.25;;;10.90;99.90;;;;;;5054975;28;20036;-74
2022/01/01 03:24:14;;;;;;;87.95;46.80;;;10.90;99.90;;;;;;5055828;28;20040;-74
2022/01/01 03:26:40;;;;;;;89.68;47.50;;;10.90;99.90;;;;;;5055654;28;20075;-75
2022/01/01 03:29:06;;;;;;;90.95;49.00;;;10.90;99.90;;;;;;5055527;28;20123;-74
2022/01/01 03:31:32;;;;;;;91.78;49.03;;;10.90;99.90;;;;;;5055613;28;20128;-74
2022/01/01 03:33:58;;;;;;;99.78;50.85;;;10.90;99.90;;;;;;5055756;28;20053;-74
2022/01/01 03:36:27;;;;;;;83.82;49.20;;;10.90;99.90;;;;;;5055584;28;20071;-74
2022/01/01 03:38:54;;;;;;;97.75;51.05;;;10.90;99.90;;;;;;5055457;28;20051;-74
2022/01/01 03:41:20;;;;;;;92.50;51.28;;;10.90;99.90;;;;;;5055449;28;20436;-74
2022/01/01 03:43:46;;;;;;;99.95;50.88;;;10.90;99.90;;;;;;5055644;28;20409;-74
2022/01/01 03:46:12;;;;;;;107.07;53.00;;;10.90;99.90;;;;;;5055612;28;20055;-74
2022/01/01 03:48:38;;;;;;;97.30;54.00;;;10.90;99.90;;;;;;5055278;28;20055;-74
2022/01/01 03:51:04;;;;;;;98.30;55.47;;;10.90;99.90;;;;;;5055563;28;20036;-74
2022/01/01 03:53:29;;;;;;;95.85;54.45;;;10.90;99.90;;;;;;5055222;28;20154;-74
2022/01/01 03:55:55;;;;;;;99.45;56.30;;;10.90;99.90;;;;;;5055245;28;20036;-74
2022/01/01 03:58:21;;;;;;;109.60;58.05;;;10.90;99.90;;;;;;5055464;28;20036;-74
2022/01/01 04:00:46;;;;;;;103.43;57.00;;;10.90;99.90;;;;;;5038553;28;20460;-74
2022/01/01 04:03:16;;;;;;;105.45;58.70;;;10.90;99.90;;;;;;5055079;28;20051;-74
2022/01/01 04:05:42;;;;;;;113.10;61.85;;;10.90;99.90;;;;;;5055101;28;20085;-74
2022/01/01 04:08:09;;;;;;;100.70;59.03;;;10.90;99.90;;;;;;5056103;28;20119;-74
2022/01/01 04:10:35;;;;;;;116.93;61.78;;;10.90;99.90;;;;;;5055032;28;20436;-74
2022/01/01 04:13:02;;;;;;;105.75;61.50;;;10.90;99.90;;;;;;5054925;28;20032;-74
2022/01/01 04:15:28;;;;;;;114.05;64.03;;;10.90;99.90;;;;;;5055255;28;20036;-74
2022/01/01 04:17:58;;;;;;;108.32;61.25;;;10.90;99.90;;;;;;5054928;28;20037;-74
2022/01/01 04:20:24;;;;;;;103.03;62.55;;;10.90;99.90;;;;;;5054995;28;20075;-75
2022/01/01 04:22:51;;;;;;;108.03;62.55;;;10.80;99.90;;;;;;5055059;28;20527;-75
2022/01/01 04:25:17;;;;;;;120.00;64.07;;;10.80;99.90;;;;;;5038374;28;20489;-75
2022/01/01 04:27:42;;;;;;;110.03;63.97;;;10.80;99.90;;;;;;5054937;28;20052;-75
2022/01/01 04:30:08;;;;;;;103.15;61.22;;;10.90;99.90;;;;;;5054880;28;20047;-75
2022/01/01 04:32:34;;;;;;;106.97;62.10;;;10.90;99.90;;;;;;5054818;28;20531;-75
2022/01/01 04:35:00;;;;;;;109.35;60.75;;;10.90;99.90;;;;;;5042058;28;20405;-75
2022/01/01 04:37:25;;;;;;;108.95;61.47;;;10.90;99.90;;;;;;5059127;28;20049;-75
2022/01/01 04:39:56;;;;;;;99.82;59.83;;;10.90;99.90;;;;;;5058830;28;20036;-75
2022/01/01 04:42:22;;;;;;;107.22;60.78;;;10.90;99.90;;;;;;5058774;28;20040;-75
2022/01/01 04:44:48;;;;;;;101.82;58.88;;;10.90;99.90;;;;;;5058728;28;20071;-75
2022/01/01 04:47:13;;;;;;;103.45;62.42;;;10.90;99.90;;;;;;5059011;28;20040;-75
2022/01/01 04:49:39;;;;;;;110.72;61.40;;;10.90;99.90;;;;;;5058720;28;20135;-75
2022/01/01 04:52:04;;;;;;;107.57;61.72;;;10.90;99.90;;;;;;5042241;28;20152;-75
2022/01/01 04:54:30;;;;;;;109.38;63.38;;;10.90;99.90;;;;;;5058685;28;20488;-75
2022/01/01 04:56:55;;;;;;;113.43;62.10;;;10.90;99.90;;;;;;5058561;28;20040;-75
2022/01/01 04:59:21;;;;;;;109.90;64.15;;;10.90;99.90;;;;;;5058518;28;20090;-75
2022/01/01 05:01:46;;;;;;;112.15;64.72;;;10.90;99.90;;;;;;5058454;28;20041;-75
2022/01/01 05:04:12;;;;;;;118.40;65.60;;;10.90;99.90;;;;;;5058901;28;20048;-75
2022/01/01 05:06:41;;;;;;;114.50;64.28;;;10.90;99.90;;;;;;5058368;28;20157;-75
2022/01/01 05:09:06;;;;;;;114.82;62.75;;;10.90;99.90;;;;;;5058166;28;20036;-75
2022/01/01 05:11:32;;;;;;;113.13;63.00;;;10.90;99.90;;;;;;5058252;28;20047;-75
2022/01/01 05:13:57;;;;;;;113.68;62.33;;;10.90;99.90;;;;;;5058359;28;20043;-75
2022/01/01 05:16:23;;;;;;;118.75;62.10;;;10.90;99.90;;;;;;5058146;28;20047;-75
2022/01/01 05:18:49;;;;;;;109.95;60.97;;;10.90;99.90;;;;;;5058085;28;20041;-75
2022/01/01 05:21:15;;;;;;;114.53;60.53;;;10.90;99.90;;;;;;5058330;28;20122;-74
2022/01/01 05:23:41;;;;;;;114.07;60.05;;;11.00;99.90;;;;;;5057863;28;20477;-74
2022/01/01 05:26:07;;;;;;;110.22;57.17;;;11.00;99.90;;;;;;5058194;28;20059;-74
2022/01/01 05:28:32;;;;;;;105.55;56.50;;;11.00;99.90;;;;;;5041228;28;20496;-74
2022/01/01 05:30:58;;;;;;;94.28;52.88;;;11.00;99.90;;;;;;5058120;28;20109;-74
2022/01/01 05:33:23;;;;;;;109.28;54.88;;;11.00;99.90;;;;;;5058264;28;20087;-74
2022/01/01 05:35:49;;;;;;;110.40;52.40;;;11.00;99.90;;;;;;5058034;28;20374;-74
2022/01/01 05:38:14;;;;;;;109.60;50.78;;;11.00;99.90;;;;;;5041156;28;20681;-74
2022/01/01 05:40:40;;;;;;;105.38;51.17;;;11.00;99.90;;;;;;5058063;28;20036;-74
2022/01/01 05:43:12;;;;;;;99.20;45.75;;;11.00;99.90;;;;;;5057919;28;20469;-74
2022/01/01 05:45:38;;;;;;;100.10;45.63;;;11.00;99.90;;;;;;5056784;28;20519;-74
2022/01/01 05:48:04;;;;;;;83.80;41.20;;;11.00;99.90;;;;;;5057518;28;20037;-75
2022/01/01 05:50:29;;;;;;;98.20;44.58;;;11.00;99.90;;;;;;5057452;28;20032;-75
2022/01/01 05:52:55;;;;;;;90.35;40.60;;;11.00;99.90;;;;;;5057432;28;20036;-75
2022/01/01 05:55:21;;;;;;;83.40;38.15;;;11.00;99.90;;;;;;5040850;28;20086;-75
2022/01/01 05:57:46;;;;;;;82.28;37.72;;;11.00;99.90;;;;;;5057703;28;20090;-75
2022/01/01 06:00:13;;;;;;;83.28;36.13;;;11.00;99.90;;;;;;5057330;28;20526;-75
2022/01/01 06:02:42;;;;;;;81.25;37.78;;;11.00;99.90;;;;;;5057187;28;20049;-75
2022/01/01 06:05:08;;;;;;;78.80;34.67;;;11.00;99.90;;;;;;5057522;28;20032;-75
2022/01/01 06:07:34;;;;;;;74.72;31.75;;;11.00;99.90;;;;;;5040605;28;20040;-75
2022/01/01 06:10:00;;;;;;;79.32;32.42;;;11.00;99.90;;;;;;5057121;28;20109;-75
2022/01/01 06:12:26;;;;;;;81.80;31.85;;;11.00;99.90;;;;;;5056978;28;20047;-75
2022/01/01 06:14:52;;;;;;;78.20;30.45;;;11.10;99.90;;;;;;5057067;28;20520;-75
2022/01/01 06:17:17;;;;;;;73.13;30.40;;;11.10;99.90;;;;;;5057062;28;20075;-75
2022/01/01 06:19:43;;;;;;;81.13;29.55;;;11.10;99.90;;;;;;5056983;28;20048;-75
2022/01/01 06:22:09;;;;;;;75.95;28.02;;;11.10;99.90;;;;;;5056940;28;20040;-75
2022/01/01 06:24:34;;;;;;;77.75;28.63;;;11.10;99.90;;;;;;5056938;28;20500;-75
2022/01/01 06:27:00;;;;;;;69.50;26.85;;;11.10;99.90;;;;;;5056867;28;20072;-75
2022/01/01 06:29:25;;;;;;;65.55;26.27;;;11.10;99.90;;;;;;5056841;28;20036;-75
2022/01/01 06:31:51;;;;;;;62.22;24.40;;;11.20;99.90;;;;;;5040482;28;20486;-75
2022/01/01 06:34:16;;;;;;;70.68;25.92;;;11.20;99.90;;;;;;5040060;28;20444;-74
2022/01/01 06:36:42;;;;;;;61.85;25.00;;;11.20;99.90;;;;;;5056694;28;20041;-74
2022/01/01 06:39:07;;;;;;;64.97;25.30;;;11.20;99.90;;;;;;5056644;28;20076;-74
2022/01/01 06:41:33;;;;;;;74.47;25.60;;;11.20;99.90;;;;;;5040067;28;20040;-74
2022/01/01 06:43:59;;;;;;;70.65;26.25;;;11.20;99.90;;;;;;5039930;28;20071;-74
2022/01/01 06:46:24;;;;;;;64.78;25.95;;;11.20;99.90;;;;;;5040590;28;20040;-74
2022/01/01 06:48:50;;;;;;;71.75;26.38;;;11.20;99.90;;;;;;5056576;28;20551;-74
2022/01/01 06:51:16;;;;;;;69.22;26.27;;;11.20;99.90;;;;;;5056383;28;20037;-74
2022/01/01 06:53:42;;;;;;;74.35;27.42;;;11.20;99.90;;;;;;5039717;28;20040;-74
2022/01/01 06:56:09;;;;;;;72.68;28.83;;;11.30;99.90;;;;;;5039658;28;20041;-74
2022/01/01 06:58:36;;;;;;;79.70;29.38;;;11.30;99.90;;;;;;5039817;28;20037;-75
2022/01/01 07:01:02;;;;;;;67.03;28.02;;;11.20;99.90;;;;;;5056129;28;20398;-75
2022/01/01 07:03:27;;;;;;;76.95;28.27;;;11.30;99.90;;;;;;5039382;28;20499;-75
2022/01/01 07:05:53;;;;;;;70.18;27.08;;;11.30;99.90;;;;;;5056053;28;20050;-74
2022/01/01 07:08:19;;;;;;;74.25;27.65;;;11.30;99.90;;;;;;5055860;28;20047;-74
2022/01/01 07:10:45;;;;;;;65.90;27.08;;;11.30;99.90;;;;;;5056008;28;20040;-74
2022/01/01 07:13:15;;;;;;;70.35;28.20;;;11.30;99.90;;;;;;5056233;28;20123;-74
2022/01/01 07:15:41;;;;;;;72.10;28.42;;;11.30;99.90;;;;;;5055966;28;20481;-74
2022/01/01 07:18:07;;;;;;;76.15;29.38;;;11.30;99.90;;;;;;5056122;28;20036;-74
2022/01/01 07:20:33;;;;;;;78.03;28.55;;;11.30;99.90;;;;;;5039237;28;20048;-74
2022/01/01 07:22:58;;;;;;;73.38;27.58;;;11.30;99.90;;;;;;5055549;28;20079;-74
2022/01/01 07:25:24;;;;;;;66.30;28.00;;;11.30;99.90;;;;;;5055725;28;20036;-74
2022/01/01 07:27:50;;;;;;;59.83;26.95;;;11.40;99.90;;;;;;5055655;28;20043;-74
2022/01/01 07:30:15;;;;;;;64.45;27.10;;;11.30;99.90;;;;;;5055585;28;20033;-74
2022/01/01 07:32:42;;;;;;;63.15;26.30;;;11.40;99.90;;;;;;5055796;28;20033;-74
2022/01/01 07:35:10;;;;;;;58.85;26.38;;;11.40;99.90;;;;;;5055536;28;20036;-74
2022/01/01 07:37:35;;;;;;;62.75;25.63;;;11.40;99.90;;;;;;5055491;28;20458;-74
2022/01/01 07:40:01;;;;;;;59.13;25.88;;;11.40;99.90;;;;;;5055780;28;20079;-74
2022/01/01 07:42:27;;;;;;;65.60;26.08;;;11.40;99.90;;;;;;5055357;28;20420;-74
2022/01/01 07:44:52;;;;;;;56.45;25.75;;;11.40;99.90;;;;;;5038846;28;20499;-74
2022/01/01 07:47:18;;;;;;;52.88;24.88;;;11.40;99.90;;;;;;5055416;28;20125;-74
2022/01/01 07:49:43;;;;;;;57.95;24.90;;;11.40;99.90;;;;;;5055275;28;20040;-74
2022/01/01 07:52:09;;;;;;;64.97;26.67;;;11.40;99.90;;;;;;5055268;28;20036;-74
2022/01/01 07:54:35;;;;;;;60.13;25.30;;;11.40;99.90;;;;;;5055308;28;20036;-74
2022/01/01 07:57:00;;;;;;;65.22;25.92;;;11.40;99.90;;;;;;5055481;28;20042;-74
2022/01/01 07:59:26;;;;;;;57.25;24.73;;;11.40;99.90;;;;;;5055219;28;20072;-74
2022/01/01 08:01:52;;;;;;;61.20;27.02;;;11.40;99.90;;;;;;5055482;28;20067;-74
2022/01/01 08:04:17;;;;;;;59.08;25.48;;;11.50;99.90;;;;;;5055072;28;20404;-74
2022/01/01 08:06:43;;;;;;;52.30;25.33;;;11.50;99.90;;;;;;5055184;28;20044;-75
2022/01/01 08:09:08;;;;;;;60.40;27.05;;;11.50;99.90;;;;;;5062772;22;20048;-68
2022/01/01 08:11:34;;;;;;;59.53;27.23;;;11.50;99.90;;;;;;5019031;28;20503;-68
2022/01/01 08:13:59;;;;;;;63.20;28.25;;;11.60;99.90;;;;;;5035254;28;20029;-68
2022/01/01 08:16:25;;;;;;;58.00;28.77;;;11.60;99.90;;;;;;5035203;28;20056;-68
2022/01/01 08:18:51;;;;;;;64.85;29.30;;;11.60;99.90;;;;;;5035328;28;20059;-68
2022/01/01 08:21:16;;;;;;;55.08;28.15;;;11.60;99.90;;;;;;5035382;28;20516;-68
2022/01/01 08:23:42;;;;;;;60.80;29.02;;;11.60;99.90;;;;;;5035151;28;20432;-69
2022/01/01 08:26:07;;;;;;;57.45;29.42;;;11.60;99.90;;;;;;5035363;28;20134;-68
2022/01/01 08:28:34;;;;;;;56.67;28.90;;;11.70;99.90;;;;;;5034934;28;20043;-68
2022/01/01 08:30:59;;;;;;;58.55;29.70;;;11.70;99.90;;;;;;5035043;28;20052;-68
2022/01/01 08:33:25;;;;;;;55.75;29.08;;;11.70;99.90;;;;;;5035035;28;20040;-68
2022/01/01 08:35:50;;;;;;;65.63;30.20;;;11.70;99.90;;;;;;5034958;28;20043;-68
2022/01/01 08:38:16;;;;;;;58.08;29.08;;;11.80;99.90;;;;;;5034882;28;20037;-69
2022/01/01 08:40:42;;;;;;;63.63;28.65;;;11.70;99.90;;;;;;5035197;28;20044;-68
2022/01/01 08:43:08;;;;;;;57.08;30.02;;;11.80;99.90;;;;;;5035116;28;20551;-68
2022/01/01 08:45:37;;;;;;;57.58;28.10;;;11.80;99.90;;;;;;5035071;28;20500;-68
2022/01/01 08:48:02;;;;;;;59.88;28.75;;;11.80;99.90;;;;;;5034664;28;20039;-68
2022/01/01 08:50:28;;;;;;;60.65;28.48;;;11.80;99.90;;;;;;5018299;28;20033;-68
2022/01/01 08:52:54;;;;;;;62.10;28.25;;;11.80;99.90;;;;;;5035087;28;20377;-68
2022/01/01 08:55:19;;;;;;;59.55;28.15;;;11.80;99.90;;;;;;5035031;28;20558;-68
2022/01/01 08:57:45;;;;;;;55.28;27.67;;;11.80;99.90;;;;;;5034978;28;20489;-69
2022/01/01 09:00:11;;;;;;;56.80;25.83;;;11.80;99.90;;;;;;5034956;28;20493;-68
2022/01/01 09:02:37;;;;;;;59.25;27.58;;;11.80;99.90;;;;;;5034700;28;20091;-68
2022/01/01 09:05:04;;;;;;;54.08;27.02;;;11.80;99.90;;;;;;5034902;28;20045;-68
2022/01/01 09:07:30;;;;;;;60.13;27.92;;;11.80;99.90;;;;;;5034464;28;20095;-69
2022/01/01 09:09:57;;;;;;;49.72;28.27;;;11.90;99.90;;;;;;5034997;28;20081;-69
2022/01/01 09:12:24;;;;;;;54.50;27.60;;;11.90;99.90;;;;;;5034796;28;20128;-68
2022/01/01 09:14:50;;;;;;;62.28;29.35;;;11.90;99.90;;;;;;5034593;28;20035;-68
2022/01/01 09:17:15;;;;;;;51.72;26.45;;;11.90;99.90;;;;;;5034584;28;20115;-69
2022/01/01 09:19:41;;;;;;;48.75;27.88;;;11.90;99.90;;;;;;5034594;28;20036;-68
2022/01/01 09:22:06;;;;;;;55.72;28.02;;;12.00;99.90;;;;;;5038055;28;20041;-68
2022/01/01 09:24:33;;;;;;;48.00;26.90;;;12.00;99.90;;;;;;5038159;28;20083;-68
2022/01/01 09:26:59;;;;;;;55.03;28.17;;;12.00;99.90;;;;;;5037984;28;20497;-68
2022/01/01 09:29:24;;;;;;;48.00;27.27;;;12.00;99.90;;;;;;5037886;28;20041;-68
2022/01/01 09:31:50;;;;;;;50.80;26.85;;;12.10;99.90;;;;;;5021917;28;20128;-69
2022/01/01 09:34:16;;;;;;;47.85;26.63;;;12.10;99.90;;;;;;5038227;28;20515;-68
2022/01/01 09:36:41;;;;;;;53.22;26.55;;;12.10;99.90;;;;;;5037872;28;20033;-68
2022/01/01 09:39:07;;;;;;;47.40;26.20;;;12.20;99.90;;;;;;5037825;28;20040;-69
2022/01/01 09:41:33;;;;;;;45.05;25.75;;;12.20;99.90;;;;;;5037829;28;20037;-69
2022/01/01 09:43:59;;;;;;;46.80;24.58;;;12.20;99.90;;;;;;5037811;28;20074;-69
2022/01/01 09:46:26;;;;;;;46.72;24.48;;;12.20;99.90;;;;;;5037736;28;20063;-69
2022/01/01 09:48:52;;;;;;;47.13;24.42;;;12.20;99.90;;;;;;5037776;28;20067;-69
2022/01/01 09:51:19;;;;;;;43.45;24.67;;;12.20;99.90;;;;;;5021357;28;20055;-69
2022/01/01 09:53:45;;;;;;;43.42;24.38;;;12.20;99.90;;;;;;5037552;28;20051;-69
2022/01/01 09:56:11;;;;;;;38.55;22.25;;;12.30;99.90;;;;;;5037478;28;20120;-69
2022/01/01 09:58:37;;;;;;;40.03;21.83;;;12.30;99.90;;;;;;5037697;28;20041;-69
2022/01/01 10:01:06;;;;;;;37.92;20.70;;;12.30;99.90;;;;;;5037510;28;20045;-69
2022/01/01 10:03:44;;;;;;;37.92;21.27;;;12.30;99.90;;;;;;5037417;28;20120;-69
2022/01/01 10:06:13;;;;;;;38.55;21.35;;;12.30;99.90;;;;;;5037375;28;20076;-69
2022/01/01 10:08:40;;;;;;;32.42;19.00;;;12.30;99.90;;;;;;5037010;28;20044;-69
2022/01/01 10:11:08;;;;;;;36.78;18.80;;;12.30;99.90;;;;;;5037203;28;20048;-69
2022/01/01 10:13:39;;;;;;;35.60;18.55;;;12.40;99.90;;;;;;5037259;28;20045;-69
2022/01/01 10:16:07;;;;;;;38.92;18.70;;;12.30;99.90;;;;;;5037267;28;20052;-69
2022/01/01 10:18:35;;;;;;;36.70;19.45;;;12.30;99.90;;;;;;5020567;28;20132;-70
2022/01/01 10:21:08;;;;;;;34.35;17.15;;;12.30;99.90;;;;;;5037269;28;20047;-69
2022/01/01 10:23:35;;;;;;;28.58;15.85;;;12.30;99.90;;;;;;5037384;28;20053;-69
2022/01/01 10:29:24;;;;;;;33.60;14.88;;;12.30;99.90;;;;;;5036951;28;20080;-69
2022/01/01 10:32:00;;;;;;;33.00;15.48;;;12.30;99.90;;;;;;5036485;28;20051;-69
2022/01/01 10:34:47;;;;;;;24.45;13.45;;;12.30;99.90;;;;;;5036822;28;20036;-69
2022/01/01 10:37:14;;;;;;;24.55;13.48;;;12.30;99.90;;;;;;5036682;28;20119;-70
2022/01/01 10:39:51;;;;;;;28.52;13.00;;;12.30;99.90;;;;;;5036745;28;20045;-69
2022/01/01 10:42:17;;;;;;;26.58;12.50;;;12.40;99.90;;;;;;5036707;28;20033;-69
2022/01/01 10:44:48;;;;;;;25.83;12.18;;;12.40;99.90;;;;;;5036573;28;20037;-69
2022/01/01 10:47:25;;;;;;;25.92;11.68;;;12.40;99.90;;;;;;5036791;28;20145;-69
2022/01/01 10:50:04;;;;;;;24.77;11.63;;;12.40;99.90;;;;;;5036629;28;20076;-69
2022/01/01 10:52:32;;;;;;;20.30;9.40;;;12.40;99.90;;;;;;5036508;28;20041;-69
2022/01/01 10:55:04;;;;;;;23.55;9.77;;;12.50;99.90;;;;;;5036696;28;20048;-69
2022/01/01 10:57:42;;;;;;;21.52;9.35;;;12.50;99.90;;;;;;5036326;28;20041;-69
2022/01/01 11:00:11;;;;;;;25.90;9.27;;;12.50;99.90;;;;;;5036377;28;20068;-69
2022/01/01 11:02:38;;;;;;;20.55;9.05;;;12.50;99.90;;;;;;5036262;28;20037;-69
2022/01/01 11:05:05;;;;;;;17.45;7.97;;;12.50;99.90;;;;;;5036497;28;20060;-69
2022/01/01 11:07:31;;;;;;;17.35;7.75;;;12.60;99.90;;;;;;5019749;28;20055;-69
2022/01/01 11:09:59;;;;;;;17.48;7.70;;;12.60;99.90;;;;;;5019609;28;20052;-69
2022/01/01 11:12:29;;;;;;;21.42;8.13;;;12.60;99.90;;;;;;5036159;28;20159;-69
2022/01/01 11:14:56;;;;;;;21.55;8.00;;;12.60;99.90;;;;;;5036080;28;20033;-69
2022/01/01 11:17:23;;;;;;;21.13;8.00;;;12.60;99.90;;;;;;5036010;28;20044;-70
2022/01/01 11:19:49;;;;;;;15.70;7.28;;;12.60;99.90;;;;;;5036250;28;20048;-69
2022/01/01 11:22:21;;;;;;;16.58;7.57;;;12.60;99.90;;;;;;5035909;28;20056;-69
2022/01/01 11:24:47;;;;;;;21.63;7.47;;;12.60;99.90;;;;;;5035907;28;20047;-69
2022/01/01 11:27:13;;;;;;;18.63;8.10;;;12.60;99.90;;;;;;5035799;28;20158;-70
2022/01/01 11:29:49;;;;;;;20.63;7.25;;;12.60;99.90;;;;;;5019332;28;20033;-69
2022/01/01 11:32:18;;;;;;;17.92;7.82;;;12.60;99.90;;;;;;5035814;28;20052;-69
2022/01/01 11:34:46;;;;;;;17.95;7.07;;;12.60;99.90;;;;;;5036018;28;20041;-69
2022/01/01 11:37:17;;;;;;;14.88;6.63;;;12.60;99.90;;;;;;5035836;28;20432;-69
2022/01/01 11:39:43;;;;;;;19.58;6.97;;;12.60;99.90;;;;;;5035572;28;20052;-68
2022/01/01 11:42:20;;;;;;;19.25;7.18;;;12.60;99.90;;;;;;5035563;28;20082;-68
2022/01/01 11:44:54;;;;;;;16.52;6.47;;;12.60;99.90;;;;;;5018958;28;20102;-68
2022/01/01 11:47:22;;;;;;;13.27;5.97;;;12.60;99.90;;;;;;5035436;28;20040;-68
2022/01/01 11:49:49;;;;;;;15.90;6.32;;;12.70;99.90;;;;;;5035391;28;20080;-68
2022/01/01 11:52:40;;;;;;;13.90;6.03;;;12.70;99.90;;;;;;5035487;28;20053;-67
2022/01/01 11:55:17;;;;;;;15.93;6.07;;;12.70;99.90;;;;;;5035519;28;20040;-68
2022/01/01 11:57:57;;;;;;;15.05;6.68;;;12.80;99.90;;;;;;5035341;28;20029;-68
2022/01/01 12:00:24;;;;;;;13.82;6.00;;;12.80;99.90;;;;;;5035412;28;20049;-70
2022/01/01 12:03:11;;;;;;;16.05;6.70;;;12.80;99.90;;;;;;5035539;28;20162;-69
2022/01/01 12:05:36;;;;;;;15.32;6.47;;;12.90;99.90;;;;;;5035359;28;20041;-70
2022/01/01 12:08:02;;;;;;;15.93;7.20;;;12.90;99.90;;;;;;5035079;28;20404;-70
2022/01/01 12:10:35;;;;;;;18.80;6.13;;;12.90;99.90;;;;;;5035126;28;20044;-70
2022/01/01 12:13:02;;;;;;;13.18;6.47;;;12.90;99.90;;;;;;5019067;28;20040;-70
2022/01/01 12:15:35;;;;;;;13.35;6.10;;;12.80;99.90;;;;;;5035223;28;20563;-70
2022/01/01 12:18:07;;;;;;;16.00;6.25;;;12.80;99.90;;;;;;5035330;28;20040;-70
2022/01/01 12:20:37;;;;;;;14.68;6.68;;;12.80;99.90;;;;;;5018792;28;20116;-70
2022/01/01 12:23:06;;;;;;;16.85;6.47;;;12.80;99.90;;;;;;5035199;28;20037;-72
2022/01/01 12:25:33;;;;;;;15.30;7.00;;;12.80;99.90;;;;;;5018946;28;20065;-72
2022/01/01 12:28:14;;;;;;;15.77;6.55;;;12.80;99.90;;;;;;5035264;28;20052;-72
2022/01/01 12:30:51;;;;;;;13.45;6.65;;;12.80;99.90;;;;;;5035691;28;20033;-72
2022/01/01 12:33:43;;;;;;;16.90;6.75;;;12.80;99.90;;;;;;5035046;28;20142;-72